Time;durP1;ratioP1;P1;durP2;ratioP2;P2;SDS_P1;SDS_P2;PMS_P1;PMS_P2;Temp;Humidity;BMP_temperature;BMP_pressure;BME280_temperature;BME280_humidity;BME280_pressure;Samples;Min_cycle;Max_cycle;Signal;HPM_P1;HPM_P2
2024/01/25 00:00:33;;;;;;;22.57;4.67;;;;;;;;;;5075153;28;20191;-53
2024/01/25 00:03:01;;;;;;;18.03;5.03;;;;;;;;;;5075195;28;20199;-53
2024/01/25 00:05:27;;;;;;;13.83;5.00;;;;;;;;;;5075245;28;20751;-53
2024/01/25 00:07:53;;;;;;;16.73;4.50;;;;;;;;;;5074880;28;20215;-52
2024/01/25 00:10:19;;;;;;;21.07;4.57;;;;;;;;;;5075027;28;20233;-52
2024/01/25 00:12:45;;;;;;;20.23;4.70;;;;;;;;;;5074822;28;20242;-51
2024/01/25 00:15:11;;;;;;;16.20;4.50;;;;;;;;;;5075023;28;20246;-51
2024/01/25 00:17:37;;;;;;;18.37;4.87;;;;;;;;;;5074941;28;20290;-52
2024/01/25 00:20:05;;;;;;;18.67;5.63;;;;;;;;;;5074647;28;20203;-51
2024/01/25 00:22:31;;;;;;;19.37;6.00;;;;;;;;;;5074742;28;20298;-51
2024/01/25 00:24:58;;;;;;;19.67;5.00;;;;;;;;;;5074729;28;20274;-52
2024/01/25 00:27:24;;;;;;;17.67;4.77;;;;;;;;;;5074886;28;20251;-54
2024/01/25 00:29:50;;;;;;;19.20;5.63;;;;;;;;;;5074557;28;20292;-52
2024/01/25 00:32:16;;;;;;;17.17;4.50;;;;;;;;;;5074494;28;20199;-52
2024/01/25 00:34:42;;;;;;;18.00;4.90;;;;;;;;;;5074474;28;20229;-52
2024/01/25 00:37:10;;;;;;;13.00;4.30;;;;;;;;;;5074671;28;20195;-52
2024/01/25 00:39:37;;;;;;;19.07;4.93;;;;;;;;;;5074635;28;20298;-52
2024/01/25 00:42:04;;;;;;;15.13;4.30;;;;;;;;;;5074435;28;20639;-53
2024/01/25 00:44:31;;;;;;;20.13;4.33;;;;;;;;;;5074236;28;20283;-52
2024/01/25 00:46:57;;;;;;;18.87;4.57;;;;;;;;;;5074276;28;20191;-52
2024/01/25 00:49:23;;;;;;;15.30;3.73;;;;;;;;;;5074549;28;20210;-51
2024/01/25 00:51:50;;;;;;;13.33;4.20;;;;;;;;;;5074279;28;20191;-52
2024/01/25 00:54:18;;;;;;;17.97;4.40;;;;;;;;;;5074047;28;20233;-52
2024/01/25 00:56:44;;;;;;;16.93;4.40;;;;;;;;;;5073961;28;20212;-52
2024/01/25 00:59:11;;;;;;;16.70;4.40;;;;;;;;;;5074079;28;20195;-52
2024/01/25 01:01:37;;;;;;;18.90;4.93;;;;;;;;;;5074235;28;20235;-51
2024/01/25 01:04:03;;;;;;;16.73;4.53;;;;;;;;;;5073942;28;20619;-53
2024/01/25 01:06:29;;;;;;;23.73;5.47;;;;;;;;;;5074107;28;20569;-52
2024/01/25 01:08:56;;;;;;;22.37;4.97;;;;;;;;;;5073591;28;20788;-53
2024/01/25 01:11:23;;;;;;;17.47;4.30;;;;;;;;;;5074133;28;20286;-52
2024/01/25 01:13:49;;;;;;;17.40;4.50;;;;;;;;;;5073590;28;20239;-52
2024/01/25 01:16:15;;;;;;;14.67;4.30;;;;;;;;;;5074087;28;20192;-51
2024/01/25 01:18:41;;;;;;;19.77;5.23;;;;;;;;;;5073714;28;20282;-52
2024/01/25 01:21:07;;;;;;;21.60;4.87;;;;;;;;;;5073505;28;20187;-52
2024/01/25 01:23:33;;;;;;;17.23;5.37;;;;;;;;;;5073690;28;20241;-52
2024/01/25 01:25:59;;;;;;;19.80;4.87;;;;;;;;;;5073208;28;20196;-52
2024/01/25 01:28:26;;;;;;;18.10;4.87;;;;;;;;;;5072217;28;20223;-52
2024/01/25 01:30:52;;;;;;;15.40;4.17;;;;;;;;;;5073497;28;20573;-52
2024/01/25 01:33:18;;;;;;;13.77;4.10;;;;;;;;;;5073394;28;20195;-52
2024/01/25 01:35:44;;;;;;;11.97;4.10;;;;;;;;;;5073570;28;20206;-52
2024/01/25 01:38:10;;;;;;;15.47;4.47;;;;;;;;;;5073420;28;20200;-52
2024/01/25 01:40:36;;;;;;;24.03;5.53;;;;;;;;;;5073345;28;20666;-52
2024/01/25 01:43:02;;;;;;;22.37;5.37;;;;;;;;;;5073246;28;20234;-52
2024/01/25 01:45:30;;;;;;;17.07;5.03;;;;;;;;;;5073277;28;20199;-52
2024/01/25 01:47:56;;;;;;;19.63;5.13;;;;;;;;;;5073074;28;20223;-52
2024/01/25 01:50:22;;;;;;;17.53;4.63;;;;;;;;;;5073186;28;20200;-52
2024/01/25 01:52:50;;;;;;;24.13;5.77;;;;;;;;;;5073135;28;20244;-53
2024/01/25 01:55:16;;;;;;;17.70;4.60;;;;;;;;;;5071387;28;20290;-51
2024/01/25 01:57:42;;;;;;;20.07;5.50;;;;;;;;;;5071791;28;20198;-52
2024/01/25 02:00:10;;;;;;;18.00;4.30;;;;;;;;;;5072907;28;20199;-52
2024/01/25 02:02:37;;;;;;;23.07;5.47;;;;;;;;;;5073353;28;20203;-51
2024/01/25 02:05:03;;;;;;;17.70;5.23;;;;;;;;;;5072013;28;20325;-53
2024/01/25 02:07:30;;;;;;;18.00;4.57;;;;;;;;;;5073099;28;20220;-51
2024/01/25 02:09:56;;;;;;;16.90;5.00;;;;;;;;;;5073057;28;20539;-52
2024/01/25 02:12:22;;;;;;;20.13;4.97;;;;;;;;;;5072744;28;20277;-52
2024/01/25 02:14:48;;;;;;;25.00;5.30;;;;;;;;;;5072847;28;20192;-51
2024/01/25 02:17:14;;;;;;;16.80;4.40;;;;;;;;;;5072726;28;20273;-49
2024/01/25 02:19:42;;;;;;;18.90;5.07;;;;;;;;;;5072671;28;20203;-49
2024/01/25 02:22:08;;;;;;;19.00;4.70;;;;;;;;;;5072665;28;20904;-50
2024/01/25 02:24:35;;;;;;;22.33;5.23;;;;;;;;;;5072615;28;20278;-53
2024/01/25 02:27:01;;;;;;;21.20;5.33;;;;;;;;;;5072581;28;20791;-50
2024/01/25 02:29:27;;;;;;;13.07;4.93;;;;;;;;;;5072722;28;20208;-50
2024/01/25 02:31:53;;;;;;;19.50;4.53;;;;;;;;;;5072484;28;20199;-50
2024/01/25 02:34:19;;;;;;;15.57;4.60;;;;;;;;;;5072579;28;20195;-50
2024/01/25 02:36:45;;;;;;;24.37;5.10;;;;;;;;;;5072587;28;20195;-50
2024/01/25 02:39:11;;;;;;;16.77;4.80;;;;;;;;;;5072432;28;20203;-50
2024/01/25 02:41:38;;;;;;;22.47;5.47;;;;;;;;;;5070741;28;20276;-49
2024/01/25 02:44:04;;;;;;;22.87;5.23;;;;;;;;;;5072291;28;20210;-50
2024/01/25 02:46:30;;;;;;;20.03;5.27;;;;;;;;;;5072444;28;20199;-50
2024/01/25 02:48:56;;;;;;;16.43;4.53;;;;;;;;;;5072153;28;20247;-49
2024/01/25 02:51:22;;;;;;;18.93;4.83;;;;;;;;;;5072338;28;20547;-50
2024/01/25 02:53:48;;;;;;;19.47;4.57;;;;;;;;;;5072159;28;20276;-50
2024/01/25 02:56:14;;;;;;;21.37;5.50;;;;;;;;;;5070556;28;20199;-49
2024/01/25 02:58:42;;;;;;;18.50;4.97;;;;;;;;;;5072254;28;20198;-50
2024/01/25 03:01:08;;;;;;;22.60;4.97;;;;;;;;;;5072188;28;20210;-50
2024/01/25 03:03:34;;;;;;;15.30;4.53;;;;;;;;;;5072148;28;20577;-50
2024/01/25 03:06:00;;;;;;;27.87;6.10;;;;;;;;;;5072064;28;20249;-50
2024/01/25 03:08:26;;;;;;;23.17;5.90;;;;;;;;;;5072049;28;20693;-50
2024/01/25 03:10:52;;;;;;;18.03;5.47;;;;;;;;;;5072126;28;20238;-50
2024/01/25 03:13:18;;;;;;;17.17;4.20;;;;;;;;;;5071794;28;20231;-50
2024/01/25 03:15:45;;;;;;;17.40;4.97;;;;;;;;;;5072172;28;20203;-50
2024/01/25 03:18:11;;;;;;;19.50;4.97;;;;;;;;;;5070673;28;20303;-50
2024/01/25 03:20:37;;;;;;;21.17;5.20;;;;;;;;;;5074480;28;20274;-50
2024/01/25 03:23:03;;;;;;;19.37;5.43;;;;;;;;;;5076011;28;20741;-50
2024/01/25 03:25:31;;;;;;;18.27;4.90;;;;;;;;;;5076146;28;20198;-50
2024/01/25 03:27:57;;;;;;;22.50;5.13;;;;;;;;;;5075894;28;20215;-49
2024/01/25 03:30:23;;;;;;;12.57;4.07;;;;;;;;;;5072575;28;20204;-50
2024/01/25 03:32:50;;;;;;;19.53;5.40;;;;;;;;;;5075915;28;20202;-50
2024/01/25 03:35:16;;;;;;;20.57;5.63;;;;;;;;;;5072442;28;20204;-50
2024/01/25 03:37:42;;;;;;;24.70;4.90;;;;;;;;;;5075923;28;20202;-50
2024/01/25 03:40:09;;;;;;;18.37;4.90;;;;;;;;;;5075698;28;20203;-50
2024/01/25 03:42:35;;;;;;;19.23;4.67;;;;;;;;;;5072351;28;20654;-50
2024/01/25 03:45:01;;;;;;;15.20;4.43;;;;;;;;;;5075777;28;20210;-50
2024/01/25 03:47:27;;;;;;;18.00;4.87;;;;;;;;;;5070602;28;20296;-49
2024/01/25 03:49:54;;;;;;;19.60;4.80;;;;;;;;;;5075530;28;20219;-50
2024/01/25 03:52:20;;;;;;;25.63;5.93;;;;;;;;;;5075536;28;20282;-50
2024/01/25 03:54:46;;;;;;;20.10;4.70;;;;;;;;;;5075572;28;20286;-50
2024/01/25 03:57:12;;;;;;;17.60;4.27;;;;;;;;;;5075499;28;20573;-49
2024/01/25 03:59:38;;;;;;;22.27;5.10;;;;;;;;;;5075335;28;20253;-51
2024/01/25 04:02:04;;;;;;;20.17;5.37;;;;;;;;;;5075266;28;20716;-50
2024/01/25 04:04:30;;;;;;;20.13;4.93;;;;;;;;;;5075191;28;20207;-49
2024/01/25 04:06:58;;;;;;;19.37;4.97;;;;;;;;;;5075243;28;20618;-50
2024/01/25 04:09:24;;;;;;;22.73;4.40;;;;;;;;;;5075455;28;20251;-50
2024/01/25 04:11:50;;;;;;;18.20;4.47;;;;;;;;;;5075215;28;20210;-49
2024/01/25 04:14:16;;;;;;;18.53;4.77;;;;;;;;;;5073285;28;20314;-50
2024/01/25 04:16:42;;;;;;;20.90;4.50;;;;;;;;;;5071783;28;20196;-50
2024/01/25 04:19:12;;;;;;;21.37;5.20;;;;;;;;;;5064673;28;20264;-50
2024/01/25 04:21:38;;;;;;;17.33;4.30;;;;;;;;;;5068315;28;20585;-50
2024/01/25 04:24:05;;;;;;;16.87;5.00;;;;;;;;;;5064640;28;20202;-50
2024/01/25 04:26:31;;;;;;;21.73;4.50;;;;;;;;;;5063147;28;20203;-49
2024/01/25 04:28:57;;;;;;;19.60;5.13;;;;;;;;;;5065556;28;20666;-49
2024/01/25 04:31:23;;;;;;;17.63;4.90;;;;;;;;;;5064801;28;20192;-49
2024/01/25 04:33:49;;;;;;;17.97;5.23;;;;;;;;;;5066185;28;20206;-50
2024/01/25 04:36:15;;;;;;;16.70;4.80;;;;;;;;;;5064569;28;20286;-50
2024/01/25 04:38:41;;;;;;;14.43;4.70;;;;;;;;;;5064590;28;20192;-49
2024/01/25 04:41:09;;;;;;;18.70;4.87;;;;;;;;;;5066122;28;20199;-50
2024/01/25 04:43:36;;;;;;;16.97;5.23;;;;;;;;;;5066280;28;20290;-49
2024/01/25 04:46:02;;;;;;;19.90;5.30;;;;;;;;;;5064423;28;20199;-50
2024/01/25 04:48:28;;;;;;;19.63;4.60;;;;;;;;;;5067684;28;20259;-50
2024/01/25 04:50:54;;;;;;;14.67;4.00;;;;;;;;;;5065987;28;20227;-50
2024/01/25 04:53:20;;;;;;;16.77;4.10;;;;;;;;;;5065865;28;20231;-50
2024/01/25 04:55:46;;;;;;;14.77;4.03;;;;;;;;;;5066209;28;20207;-49
2024/01/25 04:58:14;;;;;;;17.13;4.80;;;;;;;;;;5069179;28;20732;-49
2024/01/25 05:00:40;;;;;;;22.60;5.93;;;;;;;;;;5065889;28;20578;-50
2024/01/25 05:03:06;;;;;;;12.90;4.43;;;;;;;;;;5060509;28;20542;-50
2024/01/25 05:05:32;;;;;;;23.63;5.40;;;;;;;;;;5065895;28;20202;-49
2024/01/25 05:07:58;;;;;;;19.17;4.63;;;;;;;;;;5067265;28;20264;-50
2024/01/25 05:10:25;;;;;;;21.83;5.23;;;;;;;;;;5067299;28;20586;-50
2024/01/25 05:12:51;;;;;;;17.10;4.43;;;;;;;;;;5063786;28;20269;-50
2024/01/25 05:15:18;;;;;;;15.03;4.33;;;;;;;;;;5060302;28;20208;-49
2024/01/25 05:17:44;;;;;;;12.00;4.03;;;;;;;;;;5061980;28;20310;-50
2024/01/25 05:20:12;;;;;;;22.87;5.13;;;;;;;;;;5061800;28;20270;-50
2024/01/25 05:22:40;;;;;;;17.80;5.00;;;;;;;;;;5062003;28;20195;-50
2024/01/25 05:25:08;;;;;;;17.77;3.80;;;;;;;;;;5073713;28;20588;-50
2024/01/25 05:27:34;;;;;;;14.97;4.47;;;;;;;;;;5073586;28;20233;-50
2024/01/25 05:30:00;;;;;;;16.43;5.20;;;;;;;;;;5074090;28;20286;-50
2024/01/25 05:32:27;;;;;;;19.57;5.07;;;;;;;;;;5073754;28;20227;-50
2024/01/25 05:34:53;;;;;;;17.40;4.13;;;;;;;;;;5073543;28;20215;-50
2024/01/25 05:37:19;;;;;;;11.57;3.33;;;;;;;;;;5073806;28;20196;-50
2024/01/25 05:39:45;;;;;;;18.53;5.13;;;;;;;;;;5072853;28;20205;-50
2024/01/25 05:42:11;;;;;;;13.77;4.03;;;;;;;;;;5073142;28;20290;-50
2024/01/25 05:44:37;;;;;;;18.73;4.77;;;;;;;;;;5063197;28;20187;-50
2024/01/25 05:47:03;;;;;;;15.90;4.97;;;;;;;;;;5062934;28;20294;-50
2024/01/25 05:49:31;;;;;;;16.63;4.70;;;;;;;;;;5061309;28;20224;-50
2024/01/25 05:51:56;;;;;;;23.63;5.43;;;;;;;;;;5061563;28;20199;-50
2024/01/25 05:54:22;;;;;;;12.30;4.33;;;;;;;;;;5061197;28;20222;-50
2024/01/25 05:56:48;;;;;;;14.20;4.13;;;;;;;;;;5062996;28;20223;-50
2024/01/25 05:59:14;;;;;;;15.17;4.53;;;;;;;;;;5061495;28;20552;-50
2024/01/25 06:01:40;;;;;;;19.57;4.90;;;;;;;;;;5062828;28;20298;-49
2024/01/25 06:04:06;;;;;;;17.10;4.50;;;;;;;;;;5062619;28;20274;-50
2024/01/25 06:06:34;;;;;;;19.30;4.87;;;;;;;;;;5061048;28;20731;-50
2024/01/25 06:09:00;;;;;;;17.70;4.87;;;;;;;;;;5061041;28;20231;-49
2024/01/25 06:11:26;;;;;;;17.10;5.20;;;;;;;;;;5059271;28;20199;-50
2024/01/25 06:13:52;;;;;;;20.23;5.77;;;;;;;;;;5062463;28;20235;-50
2024/01/25 06:16:17;;;;;;;18.27;5.20;;;;;;;;;;5060590;28;20199;-50
2024/01/25 06:18:43;;;;;;;19.33;4.40;;;;;;;;;;5061949;28;20212;-50
2024/01/25 06:21:09;;;;;;;22.77;4.47;;;;;;;;;;5058771;28;20195;-50
2024/01/25 06:23:37;;;;;;;19.47;5.90;;;;;;;;;;5060556;28;20766;-50
2024/01/25 06:26:03;;;;;;;19.03;5.20;;;;;;;;;;5060550;28;20202;-49
2024/01/25 06:28:29;;;;;;;23.07;5.60;;;;;;;;;;5062317;28;20234;-50
2024/01/25 06:30:55;;;;;;;21.30;4.80;;;;;;;;;;5058804;28;20191;-50
2024/01/25 06:33:21;;;;;;;17.40;5.10;;;;;;;;;;5063515;28;20207;-50
2024/01/25 06:35:47;;;;;;;27.63;5.47;;;;;;;;;;5059975;28;20302;-50
2024/01/25 06:38:13;;;;;;;17.30;4.97;;;;;;;;;;5059761;28;20625;-49
2024/01/25 06:40:41;;;;;;;20.33;4.73;;;;;;;;;;5059784;28;20210;-49
2024/01/25 06:43:07;;;;;;;26.13;5.00;;;;;;;;;;5059502;28;20207;-50
2024/01/25 06:45:32;;;;;;;21.17;5.90;;;;;;;;;;5060224;28;20195;-50
2024/01/25 06:47:59;;;;;;;21.73;5.87;;;;;;;;;;5059016;28;20743;-50
2024/01/25 06:50:24;;;;;;;24.57;5.30;;;;;;;;;;5061737;28;20259;-50
2024/01/25 06:52:53;;;;;;;16.40;4.43;;;;;;;;;;5068543;28;20195;-50
2024/01/25 06:55:19;;;;;;;21.77;4.83;;;;;;;;;;5072112;28;20249;-50
2024/01/25 06:57:46;;;;;;;22.40;5.00;;;;;;;;;;5072308;28;20199;-50
2024/01/25 07:00:15;;;;;;;20.73;4.80;;;;;;;;;;5072155;28;20208;-50
2024/01/25 07:02:42;;;;;;;20.67;4.70;;;;;;;;;;5072266;28;20245;-50
2024/01/25 07:05:08;;;;;;;22.50;5.03;;;;;;;;;;5071984;28;20888;-50
2024/01/25 07:07:34;;;;;;;20.13;5.00;;;;;;;;;;5071952;28;20529;-50
2024/01/25 07:10:00;;;;;;;20.40;5.03;;;;;;;;;;5072253;28;20215;-50
2024/01/25 07:12:26;;;;;;;24.60;5.03;;;;;;;;;;5071731;28;20239;-51
2024/01/25 07:14:55;;;;;;;19.57;4.93;;;;;;;;;;5071897;28;20731;-50
2024/01/25 07:17:21;;;;;;;23.03;5.60;;;;;;;;;;5071453;28;20216;-50
2024/01/25 07:19:47;;;;;;;18.60;5.30;;;;;;;;;;5071382;28;20549;-50
2024/01/25 07:22:15;;;;;;;19.00;5.53;;;;;;;;;;5071925;28;20200;-50
2024/01/25 07:24:41;;;;;;;21.83;5.00;;;;;;;;;;5071853;28;20666;-49
2024/01/25 07:27:07;;;;;;;19.00;5.33;;;;;;;;;;5071885;28;20203;-50
2024/01/25 07:29:33;;;;;;;27.30;5.13;;;;;;;;;;5071583;28;20223;-50
2024/01/25 07:32:00;;;;;;;17.20;5.00;;;;;;;;;;5071961;28;20278;-50
2024/01/25 07:34:26;;;;;;;22.37;5.33;;;;;;;;;;5071599;28;20203;-50
2024/01/25 07:36:52;;;;;;;22.17;5.27;;;;;;;;;;5071735;28;20203;-50
2024/01/25 07:39:18;;;;;;;22.80;5.80;;;;;;;;;;5071561;28;20234;-50
2024/01/25 07:41:44;;;;;;;19.87;5.03;;;;;;;;;;5071867;28;20191;-50
2024/01/25 07:44:10;;;;;;;21.43;5.00;;;;;;;;;;5071728;28;20566;-50
2024/01/25 07:46:36;;;;;;;16.23;5.00;;;;;;;;;;5071755;28;20253;-50
2024/01/25 07:49:03;;;;;;;28.20;6.60;;;;;;;;;;5071618;28;20227;-50
2024/01/25 07:51:29;;;;;;;15.47;4.47;;;;;;;;;;5071713;28;20203;-50
2024/01/25 07:53:55;;;;;;;22.47;4.63;;;;;;;;;;5071781;28;20207;-50
2024/01/25 07:56:24;;;;;;;19.33;5.60;;;;;;;;;;5071435;28;20199;-50
2024/01/25 07:58:51;;;;;;;27.37;6.20;;;;;;;;;;5071645;28;20609;-50
2024/01/25 08:01:18;;;;;;;22.33;5.40;;;;;;;;;;5071636;28;20249;-50
2024/01/25 08:03:44;;;;;;;23.60;4.97;;;;;;;;;;5072823;28;20207;-50
2024/01/25 08:06:12;;;;;;;22.97;5.50;;;;;;;;;;5075112;28;20666;-49
2024/01/25 08:08:38;;;;;;;25.77;5.83;;;;;;;;;;5075267;28;20322;-50
2024/01/25 08:11:05;;;;;;;21.07;5.70;;;;;;;;;;5074858;28;20239;-50
2024/01/25 08:13:31;;;;;;;17.60;4.67;;;;;;;;;;5074948;28;20231;-50
2024/01/25 08:15:57;;;;;;;16.43;4.80;;;;;;;;;;5075195;28;20190;-50
2024/01/25 08:18:23;;;;;;;22.23;5.13;;;;;;;;;;5066414;28;20629;-50
2024/01/25 08:20:53;;;;;;;21.77;5.40;;;;;;;;;;5066420;28;20665;-50
2024/01/25 08:23:20;;;;;;;20.40;5.13;;;;;;;;;;5066452;28;20211;-51
2024/01/25 08:25:46;;;;;;;24.17;4.93;;;;;;;;;;5063069;28;20214;-50
2024/01/25 08:28:12;;;;;;;19.73;5.30;;;;;;;;;;5064746;28;20223;-50
2024/01/25 08:30:38;;;;;;;18.20;5.17;;;;;;;;;;5071468;28;20195;-50
2024/01/25 08:33:04;;;;;;;23.27;4.73;;;;;;;;;;5062825;28;20195;-50
2024/01/25 08:35:30;;;;;;;23.57;6.27;;;;;;;;;;5062786;28;20200;-50
2024/01/25 08:37:56;;;;;;;22.47;5.53;;;;;;;;;;5062653;28;20278;-50
2024/01/25 08:40:24;;;;;;;18.20;4.77;;;;;;;;;;5064265;28;20195;-51
2024/01/25 08:42:50;;;;;;;18.43;4.83;;;;;;;;;;5067835;28;20686;-50
2024/01/25 08:45:16;;;;;;;23.17;5.60;;;;;;;;;;5061861;28;20195;-50
2024/01/25 08:47:41;;;;;;;18.70;5.03;;;;;;;;;;5064682;28;20607;-50
2024/01/25 08:50:10;;;;;;;25.33;5.37;;;;;;;;;;5063409;28;20253;-50
2024/01/25 08:52:36;;;;;;;22.77;4.73;;;;;;;;;;5064060;28;20639;-50
2024/01/25 08:55:02;;;;;;;26.10;5.70;;;;;;;;;;5062395;28;20191;-50
2024/01/25 08:57:30;;;;;;;16.97;4.77;;;;;;;;;;5067386;28;20203;-50
2024/01/25 08:59:58;;;;;;;16.80;4.80;;;;;;;;;;5060633;28;20569;-50
2024/01/25 09:02:26;;;;;;;17.60;4.60;;;;;;;;;;5063809;28;20283;-50
2024/01/25 09:04:53;;;;;;;19.23;6.50;;;;;;;;;;5064092;28;20241;-50
2024/01/25 09:07:19;;;;;;;23.00;5.63;;;;;;;;;;5066347;28;20206;-50
2024/01/25 09:09:45;;;;;;;21.03;6.10;;;;;;;;;;5069024;28;20223;-50
2024/01/25 09:12:12;;;;;;;23.30;6.33;;;;;;;;;;5067052;28;20198;-50
2024/01/25 09:14:39;;;;;;;13.67;4.87;;;;;;;;;;5061902;28;20274;-50
2024/01/25 09:17:05;;;;;;;17.17;5.63;;;;;;;;;;5068560;28;20231;-50
2024/01/25 09:19:31;;;;;;;18.90;5.47;;;;;;;;;;5063411;28;20191;-50
2024/01/25 09:22:01;;;;;;;19.93;4.73;;;;;;;;;;5063618;28;20209;-50
2024/01/25 09:24:27;;;;;;;20.40;5.33;;;;;;;;;;5065340;28;20222;-49
2024/01/25 09:26:53;;;;;;;16.23;4.70;;;;;;;;;;5065229;28;20665;-51
2024/01/25 09:29:19;;;;;;;20.83;5.13;;;;;;;;;;5066556;28;20234;-52
2024/01/25 09:31:46;;;;;;;22.17;5.63;;;;;;;;;;5065274;28;20278;-51
2024/01/25 09:34:12;;;;;;;25.33;5.40;;;;;;;;;;5066795;28;20211;-51
2024/01/25 09:36:38;;;;;;;27.17;5.93;;;;;;;;;;5066781;28;20286;-51
2024/01/25 09:39:05;;;;;;;22.13;6.17;;;;;;;;;;5066838;28;20195;-50
2024/01/25 09:41:31;;;;;;;19.57;5.03;;;;;;;;;;5065141;28;20645;-50
2024/01/25 09:43:57;;;;;;;17.40;5.47;;;;;;;;;;5070146;28;20253;-50
2024/01/25 09:46:24;;;;;;;25.43;5.60;;;;;;;;;;5068228;28;20222;-51
2024/01/25 09:48:51;;;;;;;18.37;5.43;;;;;;;;;;5061505;28;20219;-51
2024/01/25 09:51:17;;;;;;;16.17;5.13;;;;;;;;;;5066459;28;20229;-51
2024/01/25 09:53:44;;;;;;;23.93;5.67;;;;;;;;;;5073324;28;20200;-48
2024/01/25 09:56:11;;;;;;;20.20;5.40;;;;;;;;;;5073216;28;20552;-46
2024/01/25 09:58:39;;;;;;;13.60;4.43;;;;;;;;;;5073109;28;20192;-48
2024/01/25 10:01:08;;;;;;;22.20;5.83;;;;;;;;;;5073032;28;20575;-49
2024/01/25 10:03:35;;;;;;;20.23;5.57;;;;;;;;;;5072817;28;20207;-49
2024/01/25 10:06:03;;;;;;;17.20;5.30;;;;;;;;;;5073178;28;20669;-47
2024/01/25 10:08:29;;;;;;;19.13;5.03;;;;;;;;;;5072879;28;20265;-48
2024/01/25 10:10:55;;;;;;;18.07;5.33;;;;;;;;;;5072912;28;20206;-47
2024/01/25 10:13:22;;;;;;;13.87;4.27;;;;;;;;;;5072564;28;20231;-49
2024/01/25 10:15:48;;;;;;;16.77;5.17;;;;;;;;;;5072846;28;20203;-48
2024/01/25 10:18:14;;;;;;;18.50;5.27;;;;;;;;;;5072496;28;20195;-49
2024/01/25 10:20:40;;;;;;;16.63;4.70;;;;;;;;;;5072606;28;20190;-49
2024/01/25 10:23:07;;;;;;;19.23;5.47;;;;;;;;;;5072707;28;20673;-49
2024/01/25 10:25:34;;;;;;;19.67;5.17;;;;;;;;;;5072397;28;20202;-49
2024/01/25 10:28:00;;;;;;;13.77;4.67;;;;;;;;;;5072217;28;20219;-48
2024/01/25 10:30:26;;;;;;;23.87;5.87;;;;;;;;;;5072238;28;20227;-48
2024/01/25 10:32:52;;;;;;;20.27;5.50;;;;;;;;;;5072548;28;20768;-48
2024/01/25 10:35:19;;;;;;;18.53;5.00;;;;;;;;;;5071043;28;20626;-49
2024/01/25 10:37:46;;;;;;;18.17;4.60;;;;;;;;;;5061305;28;20207;-49
2024/01/25 10:40:14;;;;;;;16.83;5.17;;;;;;;;;;5052516;28;20230;-49
2024/01/25 10:42:40;;;;;;;17.97;5.33;;;;;;;;;;5048866;28;20235;-48
2024/01/25 10:45:07;;;;;;;21.67;5.90;;;;;;;;;;5043905;28;20196;-49
2024/01/25 10:47:35;;;;;;;21.07;5.60;;;;;;;;;;5050457;28;20200;-49
2024/01/25 10:50:02;;;;;;;23.50;5.73;;;;;;;;;;5047239;28;20311;-49
2024/01/25 10:52:28;;;;;;;20.67;5.53;;;;;;;;;;5043769;28;20253;-48
2024/01/25 10:54:54;;;;;;;17.67;4.87;;;;;;;;;;5045573;28;20279;-49
2024/01/25 10:57:22;;;;;;;15.60;5.00;;;;;;;;;;5045338;28;20220;-48
2024/01/25 10:59:48;;;;;;;18.80;5.77;;;;;;;;;;5043564;28;20208;-48
2024/01/25 11:02:14;;;;;;;20.27;5.40;;;;;;;;;;5046947;28;20211;-48
2024/01/25 11:04:40;;;;;;;19.43;4.93;;;;;;;;;;5046928;28;20196;-49
2024/01/25 11:07:08;;;;;;;22.27;5.70;;;;;;;;;;5043624;28;20226;-49
2024/01/25 11:09:36;;;;;;;19.07;4.97;;;;;;;;;;5046868;28;20223;-49
2024/01/25 11:12:09;;;;;;;18.50;5.40;;;;;;;;;;5048628;28;20204;-50
2024/01/25 11:14:39;;;;;;;17.20;5.50;;;;;;;;;;5046760;28;20212;-49
2024/01/25 11:17:15;;;;;;;17.27;5.20;;;;;;;;;;5049895;28;20246;-49
2024/01/25 11:19:41;;;;;;;17.07;4.90;;;;;;;;;;5046464;28;20257;-49
2024/01/25 11:22:07;;;;;;;17.20;5.50;;;;;;;;;;5049912;28;20204;-48
2024/01/25 11:24:38;;;;;;;15.40;4.80;;;;;;;;;;5042987;28;20279;-49
2024/01/25 11:27:05;;;;;;;17.23;5.97;;;;;;;;;;5048319;28;20223;-48
2024/01/25 11:29:31;;;;;;;17.73;5.13;;;;;;;;;;5046322;28;20765;-49
2024/01/25 11:31:58;;;;;;;21.17;5.87;;;;;;;;;;5049959;28;20204;-49
2024/01/25 11:34:26;;;;;;;15.63;5.17;;;;;;;;;;5046264;28;20258;-48
2024/01/25 11:36:52;;;;;;;19.13;5.07;;;;;;;;;;5042996;28;20200;-49
2024/01/25 11:39:18;;;;;;;17.33;4.77;;;;;;;;;;5047056;28;20196;-49
2024/01/25 11:41:45;;;;;;;14.10;5.47;;;;;;;;;;5047077;28;20211;-49
2024/01/25 11:44:11;;;;;;;14.03;4.60;;;;;;;;;;5048759;28;20632;-48
2024/01/25 11:46:37;;;;;;;18.90;5.37;;;;;;;;;;5051855;28;20200;-48
2024/01/25 11:49:06;;;;;;;15.67;4.83;;;;;;;;;;5051901;28;20236;-49
2024/01/25 11:51:32;;;;;;;18.57;6.10;;;;;;;;;;5053499;28;20730;-48
2024/01/25 11:53:59;;;;;;;17.00;4.70;;;;;;;;;;5048594;28;20279;-49
2024/01/25 11:56:27;;;;;;;15.53;4.63;;;;;;;;;;5046683;28;20227;-48
2024/01/25 11:58:56;;;;;;;14.13;4.33;;;;;;;;;;5048814;28;20761;-49
2024/01/25 12:01:22;;;;;;;13.73;3.93;;;;;;;;;;5048300;28;20210;-49
2024/01/25 12:03:48;;;;;;;18.77;4.97;;;;;;;;;;5054960;28;20207;-49
2024/01/25 12:06:15;;;;;;;17.10;4.70;;;;;;;;;;5053421;28;20568;-49
2024/01/25 12:08:41;;;;;;;16.40;4.80;;;;;;;;;;5054904;28;20255;-48
2024/01/25 12:11:08;;;;;;;12.83;4.30;;;;;;;;;;5049849;28;20224;-49
2024/01/25 12:13:34;;;;;;;15.20;4.80;;;;;;;;;;5051276;28;20259;-49
2024/01/25 12:16:01;;;;;;;12.23;4.00;;;;;;;;;;5049934;28;20196;-49
2024/01/25 12:18:27;;;;;;;20.63;4.83;;;;;;;;;;5046063;28;20262;-49
2024/01/25 12:20:53;;;;;;;16.93;4.73;;;;;;;;;;5047515;28;20292;-49
2024/01/25 12:23:21;;;;;;;18.20;4.87;;;;;;;;;;5047858;28;20192;-48
2024/01/25 12:25:47;;;;;;;13.10;4.00;;;;;;;;;;5049882;28;20196;-49
2024/01/25 12:28:14;;;;;;;10.10;3.53;;;;;;;;;;5047853;28;20228;-49
2024/01/25 12:30:40;;;;;;;18.03;4.50;;;;;;;;;;5047960;28;20246;-49
2024/01/25 12:33:06;;;;;;;13.17;4.63;;;;;;;;;;5049625;28;20204;-49
2024/01/25 12:35:33;;;;;;;20.63;5.50;;;;;;;;;;5051230;28;20270;-49
2024/01/25 12:37:59;;;;;;;17.67;4.43;;;;;;;;;;5052948;28;20204;-49
2024/01/25 12:40:26;;;;;;;18.33;4.70;;;;;;;;;;5054688;28;20235;-49
2024/01/25 12:42:52;;;;;;;14.83;4.77;;;;;;;;;;5054551;28;20199;-49
2024/01/25 12:45:18;;;;;;;18.17;4.87;;;;;;;;;;5054526;28;20673;-49
2024/01/25 12:47:44;;;;;;;17.67;5.07;;;;;;;;;;5054463;28;20196;-49
2024/01/25 12:50:10;;;;;;;18.87;4.97;;;;;;;;;;5053869;28;20228;-49
2024/01/25 12:52:36;;;;;;;21.97;5.27;;;;;;;;;;5054293;28;20607;-49
2024/01/25 12:55:03;;;;;;;17.37;4.77;;;;;;;;;;5054311;28;20196;-49
2024/01/25 12:57:30;;;;;;;16.53;4.57;;;;;;;;;;5054343;28;20196;-50
2024/01/25 12:59:56;;;;;;;17.43;4.90;;;;;;;;;;5054315;28;20565;-49
2024/01/25 13:02:22;;;;;;;17.23;4.73;;;;;;;;;;5054277;28;20204;-48
2024/01/25 13:04:49;;;;;;;15.37;4.53;;;;;;;;;;5054224;28;20192;-49
2024/01/25 13:07:15;;;;;;;20.67;4.63;;;;;;;;;;5054353;28;20271;-49
2024/01/25 13:09:41;;;;;;;14.10;4.87;;;;;;;;;;5054182;28;20319;-49
2024/01/25 13:12:08;;;;;;;16.17;4.30;;;;;;;;;;5054024;28;20196;-48
2024/01/25 13:14:35;;;;;;;12.57;4.03;;;;;;;;;;5054073;28;20450;-48
2024/01/25 13:17:01;;;;;;;16.47;4.43;;;;;;;;;;5053830;28;20330;-48
2024/01/25 13:19:27;;;;;;;20.23;5.00;;;;;;;;;;5053849;28;20283;-49
2024/01/25 13:21:53;;;;;;;15.63;5.17;;;;;;;;;;5053901;28;20198;-52
2024/01/25 13:24:19;;;;;;;18.50;5.97;;;;;;;;;;5053868;28;20192;-49
2024/01/25 13:26:45;;;;;;;17.40;4.43;;;;;;;;;;5053854;28;20208;-48
2024/01/25 13:29:12;;;;;;;20.03;5.33;;;;;;;;;;5053848;28;20599;-48
2024/01/25 13:31:40;;;;;;;17.10;5.37;;;;;;;;;;5053497;28;20180;-48
2024/01/25 13:34:06;;;;;;;18.77;5.23;;;;;;;;;;5053747;28;20204;-49
2024/01/25 13:36:32;;;;;;;19.43;5.30;;;;;;;;;;5053693;28;20563;-49
2024/01/25 13:38:58;;;;;;;17.83;5.60;;;;;;;;;;5053609;28;20228;-49
2024/01/25 13:41:24;;;;;;;15.23;4.60;;;;;;;;;;5053701;28;20203;-49
2024/01/25 13:43:49;;;;;;;17.27;4.47;;;;;;;;;;5049973;28;20681;-48
2024/01/25 13:46:15;;;;;;;15.40;4.43;;;;;;;;;;5045388;28;20279;-49
2024/01/25 13:48:43;;;;;;;15.23;4.83;;;;;;;;;;5040615;28;20569;-49
2024/01/25 13:51:09;;;;;;;15.07;4.53;;;;;;;;;;5049060;28;20589;-49
2024/01/25 13:53:35;;;;;;;14.87;4.67;;;;;;;;;;5046318;28;20204;-49
2024/01/25 13:56:01;;;;;;;14.07;5.00;;;;;;;;;;5046509;28;20257;-49
2024/01/25 13:58:27;;;;;;;14.30;4.63;;;;;;;;;;5047898;28;20196;-48
2024/01/25 14:00:54;;;;;;;11.87;4.13;;;;;;;;;;5043485;28;20235;-48
2024/01/25 14:03:20;;;;;;;20.73;4.27;;;;;;;;;;5041005;28;20231;-49
2024/01/25 14:05:47;;;;;;;20.00;5.10;;;;;;;;;;5046141;28;20391;-48
2024/01/25 14:08:13;;;;;;;14.23;4.20;;;;;;;;;;5045998;28;20208;-48
2024/01/25 14:10:40;;;;;;;16.43;4.90;;;;;;;;;;5042436;28;20208;-49
2024/01/25 14:13:06;;;;;;;16.20;5.13;;;;;;;;;;5044155;28;20236;-48
2024/01/25 14:15:32;;;;;;;15.73;5.23;;;;;;;;;;5042404;28;20208;-48
2024/01/25 14:17:58;;;;;;;18.47;5.17;;;;;;;;;;5040723;28;20216;-49
2024/01/25 14:20:24;;;;;;;17.97;5.00;;;;;;;;;;5045746;28;20218;-49
2024/01/25 14:22:51;;;;;;;17.67;4.77;;;;;;;;;;5052414;28;20268;-48
2024/01/25 14:25:17;;;;;;;18.53;5.07;;;;;;;;;;5052494;28;20607;-48